Main page
METAR-TAF:

METAR-TAF

Airports :

Cambridge, England

Cambridge Airport

latitude: 52-12N, longitude: 000-11E, elevation: 15 m

Current weather observation

The report was made 29 minutes ago, at 17:20 UTC
Wind 4 kt from the North, varying between North/Northwest and Northeast
Temperature 12°C
Humidity 47%
Pressure 1016 hPa
Visibility 10 km or more
Few clouds at a height of 4500 ft

METAR: EGSC 281720Z 01004KT 340V050 9999 FEW045 12/01 Q1016

Time: 18:49 (17:49 UTC)

Forecast

The report was made 3 hours and 45 minutes ago, at 14:04 UTC
Forecast valid from 28 at 15 UTC to 28 at 19 UTC
Wind 6 kt from the North/Northwest
Visibility 10 km or more
Few clouds at a height of 3000 ft
Scattered clouds at a height of 4500 ft

TAF: EGSC 281404Z 2815/2819 34006KT 9999 FEW030 SCT045

Weather observations and forecasts of more than 4000 airports (METAR and TAF reports).

The available stations are represented by yellow and red dots on the map.

Hover mouse over dot to see the name of the station.

Then click to see weather observations and forecasts.

To change the map : click on the green buttons with a black cross to zoom in, on the green button with a dash to zoom out, or on the green arrows for adjacent maps.


METAR-TAF: